createdAt,value
2022-08-18T00:01:41.291Z,84.34
2022-08-18T00:04:29.897Z,83.20
2022-08-18T00:06:56.885Z,83.51
2022-08-18T00:09:23.503Z,84.37
2022-08-18T00:11:50.231Z,84.87
2022-08-18T00:14:21.362Z,85.56
2022-08-18T00:16:53.712Z,84.43
2022-08-18T00:19:45.616Z,84.22
2022-08-18T00:22:15.101Z,83.91
2022-08-18T00:24:48.727Z,84.19
2022-08-18T00:27:19.604Z,83.50
2022-08-18T00:29:48.824Z,83.89
2022-08-18T00:32:17.895Z,84.33
2022-08-18T00:34:44.776Z,85.40
2022-08-18T00:37:11.460Z,86.33
2022-08-18T00:39:40.613Z,86.04
2022-08-18T00:42:29.835Z,85.92
2022-08-18T00:44:59.617Z,86.19
2022-08-18T00:47:41.886Z,85.59
2022-08-18T00:50:15.322Z,85.77
2022-08-18T00:52:46.788Z,85.18
2022-08-18T00:55:13.418Z,85.20
2022-08-18T00:57:42.437Z,85.21
2022-08-18T01:00:13.053Z,85.78
2022-08-18T01:02:49.816Z,86.77
2022-08-18T01:05:41.089Z,87.12
2022-08-18T01:08:11.962Z,86.97
2022-08-18T01:10:39.614Z,86.65
2022-08-18T01:13:06.777Z,86.78
2022-08-18T01:15:35.022Z,86.81
2022-08-18T01:18:24.303Z,87.56
2022-08-18T01:21:41.019Z,88.15
2022-08-18T01:24:08.729Z,88.43
2022-08-18T01:26:44.225Z,88.76
2022-08-18T01:29:18.936Z,89.03
2022-08-18T01:31:56.037Z,89.20
2022-08-18T01:34:26.336Z,88.98
2022-08-18T01:36:55.017Z,88.23
2022-08-18T01:41:21.762Z,88.26
2022-08-18T01:42:08.992Z,89.04
2022-08-18T01:44:35.771Z,88.07
2022-08-18T01:47:02.360Z,88.98
2022-08-18T01:49:28.990Z,89.39
2022-08-18T01:51:55.994Z,89.27
2022-08-18T01:54:22.824Z,89.98
2022-08-18T01:56:49.569Z,90.03
2022-08-18T01:59:16.246Z,88.90
2022-08-18T02:01:53.085Z,88.77
2022-08-18T02:04:35.522Z,88.05
2022-08-18T02:07:06.636Z,88.59
2022-08-18T02:09:33.666Z,88.41
2022-08-18T02:12:01.192Z,89.17
2022-08-18T02:14:27.800Z,89.96
2022-08-18T02:17:02.289Z,89.30
2022-08-18T02:19:34.171Z,88.67
2022-08-18T02:22:01.786Z,88.98
2022-08-18T02:24:28.237Z,89.46
2022-08-18T02:26:54.927Z,89.83
2022-08-18T02:29:21.555Z,90.33
2022-08-18T02:31:48.192Z,90.14
2022-08-18T02:34:16.421Z,89.97
2022-08-18T02:36:43.054Z,89.89
2022-08-18T02:39:09.604Z,89.57
2022-08-18T02:41:37.038Z,90.07
2022-08-18T02:44:04.902Z,90.48
2022-08-18T02:46:31.588Z,90.77
2022-08-18T02:49:00.445Z,90.57
2022-08-18T02:51:27.520Z,90.69
2022-08-18T02:53:54.299Z,89.86
2022-08-18T02:56:40.648Z,91.00
2022-08-18T02:59:15.264Z,91.41
2022-08-18T03:01:45.614Z,90.51
2022-08-18T03:04:15.795Z,89.43
2022-08-18T03:06:43.233Z,90.13
2022-08-18T03:09:12.550Z,90.60
2022-08-18T03:11:39.632Z,89.92
2022-08-18T03:14:08.689Z,90.18
2022-08-18T03:16:40.569Z,89.59
2022-08-18T03:19:20.562Z,89.22
2022-08-18T03:21:47.873Z,89.68
2022-08-18T03:24:22.200Z,89.70
2022-08-18T03:26:49.697Z,89.56
2022-08-18T03:29:16.260Z,89.18
2022-08-18T03:31:44.516Z,89.70
2022-08-18T03:34:12.314Z,89.86
2022-08-18T03:36:39.656Z,89.04
2022-08-18T03:39:09.947Z,90.21
2022-08-18T03:41:58.692Z,90.51
2022-08-18T03:44:26.475Z,91.31
2022-08-18T03:46:53.060Z,91.15
2022-08-18T03:49:20.980Z,91.36
2022-08-18T03:51:48.802Z,91.54
2022-08-18T03:54:17.702Z,92.15
2022-08-18T03:56:46.819Z,92.14
2022-08-18T03:59:19.776Z,91.62
2022-08-18T04:01:48.150Z,92.02
2022-08-18T04:04:19.191Z,92.50
2022-08-18T04:06:54.101Z,92.60
2022-08-18T04:09:22.017Z,92.31
2022-08-18T04:11:49.634Z,91.97
2022-08-18T04:14:20.279Z,91.86
2022-08-18T04:16:49.290Z,91.54
2022-08-18T04:19:26.139Z,91.40
2022-08-18T04:21:55.344Z,91.56
2022-08-18T04:24:21.845Z,92.38
2022-08-18T04:26:49.992Z,90.34
2022-08-18T04:29:18.588Z,92.21
2022-08-18T04:31:45.270Z,91.65
2022-08-18T04:34:12.517Z,92.06
2022-08-18T04:46:29.506Z,89.82
2022-08-18T04:49:01.335Z,90.46
2022-08-18T04:52:26.899Z,90.36
2022-08-18T04:54:16.602Z,90.92
2022-08-18T05:06:36.373Z,90.40
2022-08-18T05:09:06.620Z,90.63
2022-08-18T05:11:36.167Z,90.73
2022-08-18T05:14:08.526Z,90.87
2022-08-18T05:16:47.949Z,91.17
2022-08-18T05:19:23.540Z,90.97
2022-08-18T05:21:59.790Z,90.99
2022-08-18T05:24:33.770Z,91.38
2022-08-18T05:27:04.243Z,90.70
2022-08-18T05:29:41.800Z,91.51
2022-08-18T05:32:41.044Z,91.44
2022-08-18T05:35:05.112Z,91.43
2022-08-18T05:37:52.670Z,91.31
2022-08-18T05:40:23.043Z,90.47
2022-08-18T05:42:49.947Z,91.23
2022-08-18T05:45:18.495Z,91.50
2022-08-18T05:47:45.381Z,91.09
2022-08-18T05:50:17.281Z,90.87
2022-08-18T05:53:01.449Z,90.76
2022-08-18T05:56:13.171Z,89.92
2022-08-18T05:58:46.872Z,90.68
2022-08-18T06:01:18.502Z,90.20
2022-08-18T06:03:54.480Z,90.00
2022-08-18T06:06:29.649Z,90.16
2022-08-18T06:09:10.702Z,89.75
2022-08-18T06:11:37.234Z,89.76
2022-08-18T06:14:03.990Z,89.69
2022-08-18T06:17:02.658Z,89.66
2022-08-18T06:19:58.632Z,89.01
2022-08-18T06:22:33.934Z,87.85
2022-08-18T06:25:11.965Z,87.98
2022-08-18T06:27:58.702Z,88.11
2022-08-18T06:34:10.593Z,88.06
2022-08-18T06:37:07.133Z,87.96
2022-08-18T06:39:49.382Z,87.28
2022-08-18T06:42:26.261Z,87.69
2022-08-18T06:44:56.056Z,87.72
2022-08-18T06:47:41.000Z,88.25
2022-08-18T06:50:18.504Z,88.07
2022-08-18T06:52:53.113Z,87.82
2022-08-18T06:55:36.180Z,87.72
2022-08-18T06:58:18.202Z,88.06
2022-08-18T07:00:56.666Z,88.11
2022-08-18T07:03:42.317Z,87.87
2022-08-18T07:06:08.854Z,87.57
2022-08-18T07:08:42.820Z,87.86
2022-08-18T07:11:27.226Z,87.24
2022-08-18T07:14:16.646Z,87.81
2022-08-18T07:16:58.300Z,87.39
2022-08-18T07:19:29.739Z,86.91
2022-08-18T07:22:05.622Z,86.93
2022-08-18T07:24:37.457Z,86.69
2022-08-18T07:27:17.897Z,86.20
2022-08-18T07:30:15.613Z,86.34
2022-08-18T07:32:47.484Z,86.27
2022-08-18T07:35:23.935Z,86.81
2022-08-18T07:38:38.484Z,86.55
2022-08-18T07:41:16.117Z,86.35
2022-08-18T07:44:16.931Z,86.90
2022-08-18T07:47:03.756Z,86.64
2022-08-18T07:49:36.145Z,86.54
2022-08-18T07:52:36.474Z,86.47
2022-08-18T07:55:30.692Z,86.63
2022-08-18T07:58:18.420Z,87.22
2022-08-18T08:01:04.642Z,86.78
2022-08-18T08:03:58.869Z,86.10
2022-08-18T08:07:06.486Z,86.10
2022-08-18T08:09:42.642Z,86.12
2022-08-18T08:12:31.247Z,86.34
2022-08-18T08:15:26.727Z,85.67
2022-08-18T08:18:01.611Z,85.55
2022-08-18T08:20:39.558Z,85.88
2022-08-18T08:23:24.130Z,85.74
2022-08-18T08:26:01.224Z,85.76
2022-08-18T08:28:53.745Z,84.93
2022-08-18T08:31:36.903Z,84.59
2022-08-18T08:34:18.198Z,84.44
2022-08-18T08:36:47.027Z,84.08
2022-08-18T08:39:24.331Z,84.00
2022-08-18T08:41:57.861Z,84.04
2022-08-18T08:45:01.163Z,84.44
2022-08-18T08:47:34.462Z,84.24
2022-08-18T08:50:33.882Z,84.25
2022-08-18T08:53:13.013Z,84.10
2022-08-18T08:55:47.289Z,83.78
2022-08-18T08:58:24.789Z,83.40
2022-08-18T09:00:53.209Z,83.19
2022-08-18T09:03:56.756Z,83.04
2022-08-18T09:06:32.346Z,81.95
2022-08-18T09:09:07.892Z,82.07
2022-08-18T09:11:58.521Z,81.42
2022-08-18T09:14:45.977Z,80.95
2022-08-18T09:17:37.373Z,80.07
2022-08-18T09:20:29.985Z,78.75
2022-08-18T09:23:12.066Z,77.97
2022-08-18T09:25:39.316Z,77.68
2022-08-18T09:28:29.070Z,76.52
2022-08-18T09:31:08.574Z,77.17
2022-08-18T09:33:44.112Z,76.89
2022-08-18T09:36:35.160Z,76.42
2022-08-18T09:39:43.323Z,76.26
2022-08-18T09:45:07.813Z,76.47
2022-08-18T09:47:37.665Z,76.12
2022-08-18T09:50:27.108Z,75.74
2022-08-18T09:53:14.515Z,74.62
2022-08-18T09:55:56.750Z,73.81
2022-08-18T09:58:29.297Z,73.29
2022-08-18T10:01:30.362Z,73.03
2022-08-18T10:04:15.446Z,71.65
2022-08-18T10:06:48.347Z,70.71
2022-08-18T10:09:26.804Z,67.02
2022-08-18T10:12:01.749Z,67.10
2022-08-18T10:14:56.908Z,68.73
2022-08-18T10:17:44.985Z,67.40
2022-08-18T10:20:39.462Z,65.04
2022-08-18T10:23:09.869Z,63.76
2022-08-18T10:25:40.979Z,63.80
2022-08-18T10:28:12.766Z,63.72
2022-08-18T10:30:57.122Z,64.86
2022-08-18T10:33:54.187Z,65.06
2022-08-18T10:36:59.066Z,65.51
2022-08-18T10:40:04.523Z,66.11
2022-08-18T10:42:39.252Z,66.07
2022-08-18T10:45:34.286Z,66.32
2022-08-18T10:48:17.344Z,65.61
2022-08-18T10:51:05.989Z,65.12
2022-08-18T10:56:57.771Z,67.07
2022-08-18T11:00:04.018Z,68.77
2022-08-18T11:02:48.715Z,70.57
2022-08-18T11:05:20.342Z,69.73
2022-08-18T11:07:53.544Z,67.77
2022-08-18T11:10:57.607Z,68.20
2022-08-18T11:13:56.325Z,66.58
2022-08-18T11:16:49.802Z,66.90
2022-08-18T11:19:22.772Z,67.12
2022-08-18T11:21:52.050Z,65.19
2022-08-18T11:24:26.557Z,67.42
2022-08-18T11:26:59.309Z,66.73
2022-08-18T11:29:32.205Z,64.58
2022-08-18T11:32:18.132Z,64.83
2022-08-18T11:34:53.628Z,65.61
2022-08-18T11:38:12.296Z,66.09
2022-08-18T11:41:10.444Z,65.50
2022-08-18T11:43:41.260Z,65.41
2022-08-18T11:46:29.333Z,65.90
2022-08-18T11:48:57.215Z,64.65
2022-08-18T11:51:34.498Z,65.05
2022-08-18T11:54:23.314Z,65.48
2022-08-18T11:56:51.245Z,65.47
2022-08-18T11:59:52.510Z,64.84
2022-08-18T12:02:17.537Z,66.16
2022-08-18T12:04:44.876Z,66.57
2022-08-18T12:07:15.102Z,66.98
2022-08-18T12:10:16.587Z,67.28
2022-08-18T12:12:50.146Z,67.83
2022-08-18T12:15:24.629Z,64.43
2022-08-18T12:17:53.669Z,63.88
2022-08-18T12:20:22.000Z,64.32
2022-08-18T12:22:50.298Z,65.11
2022-08-18T12:25:24.540Z,64.22
2022-08-18T12:27:53.100Z,63.82
2022-08-18T12:30:20.130Z,64.18
2022-08-18T12:32:50.603Z,64.31
2022-08-18T12:35:21.653Z,64.16
2022-08-18T12:38:12.409Z,63.81
2022-08-18T12:40:35.521Z,64.44
2022-08-18T12:43:02.113Z,65.23
2022-08-18T12:45:31.363Z,64.52
2022-08-18T12:47:59.662Z,63.85
2022-08-18T12:50:31.100Z,63.31
2022-08-18T12:53:00.041Z,63.53
2022-08-18T12:55:29.999Z,63.63
2022-08-18T12:57:56.514Z,61.95
2022-08-18T13:00:27.967Z,60.38
2022-08-18T13:02:56.594Z,59.21
2022-08-18T13:05:27.745Z,58.01
2022-08-18T13:08:00.461Z,58.33
2022-08-18T13:10:44.915Z,57.97
2022-08-18T13:13:14.499Z,57.24
2022-08-18T13:15:55.626Z,58.06
2022-08-18T13:18:28.694Z,58.37
2022-08-18T13:20:58.372Z,58.79
2022-08-18T13:23:25.970Z,58.28
2022-08-18T13:26:01.488Z,57.39
2022-08-18T13:28:30.224Z,57.20
2022-08-18T13:30:57.306Z,57.15
2022-08-18T13:33:34.852Z,57.20
2022-08-18T13:36:11.854Z,55.98
2022-08-18T13:38:43.368Z,55.87
2022-08-18T13:41:15.645Z,55.47
2022-08-18T13:43:44.560Z,54.69
2022-08-18T13:46:16.545Z,55.96
2022-08-18T13:48:44.168Z,56.39
2022-08-18T13:51:17.127Z,57.47
2022-08-18T13:53:57.799Z,56.43
2022-08-18T13:56:31.215Z,57.43
2022-08-18T13:58:58.457Z,57.63
2022-08-18T14:01:44.746Z,56.78
2022-08-18T14:04:15.123Z,57.90
2022-08-18T14:06:51.130Z,57.40
2022-08-18T14:09:27.814Z,58.57
2022-08-18T14:12:19.330Z,59.00
2022-08-18T14:14:51.947Z,59.15
2022-08-18T14:17:18.520Z,60.42
2022-08-18T14:20:04.575Z,59.90
2022-08-18T14:22:49.877Z,60.89
2022-08-18T14:25:45.602Z,61.02
2022-08-18T14:28:12.192Z,60.92
2022-08-18T14:30:44.300Z,59.97
2022-08-18T14:33:33.889Z,60.29
2022-08-18T14:36:09.729Z,59.62
2022-08-18T14:38:36.684Z,58.46
2022-08-18T14:41:07.198Z,57.47
2022-08-18T14:43:51.682Z,56.51
2022-08-18T14:46:30.038Z,57.88
2022-08-18T14:48:59.107Z,57.39
2022-08-18T14:51:27.185Z,57.31
2022-08-18T14:53:55.688Z,57.02
2022-08-18T14:56:28.410Z,56.07
2022-08-18T14:58:56.024Z,55.16
2022-08-18T15:01:24.105Z,54.02
2022-08-18T15:03:50.715Z,53.93
2022-08-18T15:06:27.064Z,53.19
2022-08-18T15:08:57.051Z,54.71
2022-08-18T15:11:24.641Z,55.19
2022-08-18T15:13:51.710Z,56.56
2022-08-18T15:16:27.009Z,54.89
2022-08-18T15:18:58.992Z,54.30
2022-08-18T15:21:44.298Z,53.15
2022-08-18T15:24:29.415Z,52.77
2022-08-18T15:27:05.656Z,52.32
2022-08-18T15:29:33.476Z,52.20
2022-08-18T15:32:02.038Z,52.80
2022-08-18T15:34:31.887Z,51.61
2022-08-18T15:37:09.541Z,52.74
2022-08-18T15:39:37.024Z,52.44
2022-08-18T15:42:10.373Z,51.30
2022-08-18T15:44:38.083Z,51.73
2022-08-18T15:47:05.332Z,51.36
2022-08-18T15:49:35.977Z,51.16
2022-08-18T15:52:02.782Z,51.55
2022-08-18T15:54:29.455Z,51.76
2022-08-18T15:56:58.291Z,52.00
2022-08-18T15:59:27.024Z,51.69
2022-08-18T16:02:01.576Z,52.22
2022-08-18T16:04:28.136Z,52.23
2022-08-18T16:06:55.316Z,52.55
2022-08-18T16:09:22.137Z,52.37
2022-08-18T16:11:48.954Z,51.90
2022-08-18T16:14:15.556Z,51.90
2022-08-18T16:16:42.183Z,52.87
2022-08-18T16:19:08.750Z,52.54
2022-08-18T16:21:39.899Z,52.65
2022-08-18T16:24:08.190Z,53.21
2022-08-18T16:26:35.303Z,53.00
2022-08-18T16:29:02.160Z,52.74
2022-08-18T16:31:29.500Z,53.70
2022-08-18T16:33:57.829Z,53.66
2022-08-18T16:36:25.773Z,53.88
2022-08-18T16:38:54.197Z,54.12
2022-08-18T16:41:24.842Z,54.30
2022-08-18T16:43:51.429Z,54.31
2022-08-18T16:46:23.461Z,54.63
2022-08-18T16:48:51.217Z,55.21
2022-08-18T16:51:22.004Z,55.23
2022-08-18T16:53:52.200Z,55.20
2022-08-18T16:56:22.558Z,55.79
2022-08-18T16:59:25.282Z,55.66
2022-08-18T17:02:10.549Z,55.50
2022-08-18T17:04:37.621Z,55.49
2022-08-18T17:07:05.623Z,55.97
2022-08-18T17:09:33.330Z,56.44
2022-08-18T17:12:00.338Z,56.52
2022-08-18T17:14:30.108Z,56.79
2022-08-18T17:16:58.562Z,56.71
2022-08-18T17:19:29.246Z,57.12
2022-08-18T17:21:55.997Z,57.04
2022-08-18T17:24:31.255Z,57.33
2022-08-18T17:27:26.676Z,57.68
2022-08-18T17:30:13.314Z,57.56
2022-08-18T17:32:48.012Z,57.81
2022-08-18T17:35:29.740Z,58.18
2022-08-18T17:38:32.546Z,58.37
2022-08-18T17:41:00.392Z,58.46
2022-08-18T17:43:32.434Z,58.77
2022-08-18T17:46:04.647Z,58.62
2022-08-18T17:48:37.900Z,58.45
2022-08-18T17:51:29.983Z,58.87
2022-08-18T17:58:42.199Z,59.54
2022-08-18T18:01:09.917Z,59.56
2022-08-18T18:03:37.141Z,59.99
2022-08-18T18:06:33.892Z,59.71
2022-08-18T18:09:22.030Z,59.52
2022-08-18T18:11:48.867Z,59.66
2022-08-18T18:14:33.605Z,59.65
2022-08-18T18:17:25.244Z,59.85
2022-08-18T18:20:38.657Z,59.57
2022-08-18T18:23:21.004Z,59.66
2022-08-18T18:25:48.368Z,60.22
2022-08-18T18:28:28.954Z,60.15
2022-08-18T18:30:58.970Z,60.52
2022-08-18T18:33:30.562Z,60.70
2022-08-18T18:35:59.487Z,60.89
2022-08-18T18:38:30.657Z,60.94
2022-08-18T18:41:02.073Z,61.83
2022-08-18T18:43:38.479Z,61.92
2022-08-18T18:46:19.467Z,62.43
2022-08-18T18:49:18.366Z,62.39
2022-08-18T18:51:53.692Z,62.76
2022-08-18T18:54:49.736Z,63.28
2022-08-18T18:57:38.103Z,63.50
2022-08-18T19:00:18.238Z,63.49
2022-08-18T19:02:49.705Z,63.99
2022-08-18T19:05:27.479Z,64.19
2022-08-18T19:08:02.183Z,64.08
2022-08-18T19:10:38.310Z,64.28
2022-08-18T19:13:30.359Z,65.25
2022-08-18T19:16:28.290Z,65.43
2022-08-18T19:19:37.678Z,65.77
2022-08-18T19:22:07.973Z,66.40
2022-08-18T19:24:40.497Z,66.40
2022-08-18T19:27:17.401Z,66.81
2022-08-18T19:29:53.716Z,66.85
2022-08-18T19:32:31.218Z,66.72
2022-08-18T19:34:58.645Z,66.80
2022-08-18T19:37:49.993Z,67.11
2022-08-18T19:40:21.386Z,67.18
2022-08-18T19:43:03.957Z,67.46
2022-08-18T19:45:30.495Z,67.67
2022-08-18T19:48:18.134Z,67.30
2022-08-18T19:50:56.486Z,67.36
2022-08-18T19:53:35.069Z,67.67
2022-08-18T19:56:28.046Z,67.76
2022-08-18T19:59:18.555Z,67.82
2022-08-18T20:02:17.804Z,67.46
2022-08-18T20:04:53.564Z,67.45
2022-08-18T20:07:57.987Z,67.34
2022-08-18T20:10:39.307Z,67.44
2022-08-18T20:13:11.771Z,67.14
2022-08-18T20:16:13.699Z,67.16
2022-08-18T20:18:46.113Z,67.82
2022-08-18T20:21:20.297Z,68.36
2022-08-18T20:23:56.006Z,68.59
2022-08-18T20:26:35.005Z,68.83
2022-08-18T20:29:02.374Z,68.90
2022-08-18T20:31:49.434Z,68.68
2022-08-18T20:34:19.172Z,69.22
2022-08-18T20:36:47.130Z,69.72
2022-08-18T20:39:30.165Z,69.48
2022-08-18T20:41:59.085Z,69.56
2022-08-18T20:44:39.777Z,69.68
2022-08-18T20:47:18.843Z,70.28
2022-08-18T20:49:54.639Z,70.87
2022-08-18T20:53:07.726Z,70.90
2022-08-18T20:56:12.925Z,71.88
2022-08-18T20:59:03.972Z,72.31
2022-08-18T21:01:36.729Z,72.66
2022-08-18T21:04:03.599Z,73.38
2022-08-18T21:06:42.205Z,73.39
2022-08-18T21:09:09.586Z,73.57
2022-08-18T21:11:45.640Z,73.14
2022-08-18T21:14:15.125Z,74.02
2022-08-18T21:16:45.190Z,74.60
2022-08-18T21:19:28.897Z,74.56
2022-08-18T21:22:00.721Z,74.65
2022-08-18T21:24:39.761Z,74.25
2022-08-18T21:27:38.211Z,74.87
2022-08-18T21:30:19.816Z,75.30
2022-08-18T21:32:48.082Z,75.19
2022-08-18T21:35:33.175Z,75.54
2022-08-18T21:38:05.992Z,76.06
2022-08-18T21:40:39.435Z,75.97
2022-08-18T21:43:07.706Z,76.03
2022-08-18T21:45:47.420Z,75.80
2022-08-18T21:48:15.108Z,75.81
2022-08-18T21:50:51.535Z,75.73
2022-08-18T21:53:28.197Z,74.87
2022-08-18T21:55:56.517Z,74.38
2022-08-18T21:58:32.627Z,74.16
2022-08-18T22:01:17.192Z,74.02
2022-08-18T22:04:00.436Z,73.99
2022-08-18T22:06:35.459Z,74.35
2022-08-18T22:09:29.998Z,74.12
2022-08-18T22:12:33.967Z,74.18
2022-08-18T22:15:15.455Z,75.32
2022-08-18T22:17:44.993Z,75.73
2022-08-18T22:20:36.540Z,76.12
2022-08-18T22:23:34.992Z,76.94
2022-08-18T22:26:16.596Z,75.83
2022-08-18T22:29:05.019Z,75.68
2022-08-18T22:31:38.587Z,75.70
2022-08-18T22:34:28.175Z,75.73
2022-08-18T22:37:00.363Z,75.85
2022-08-18T22:39:35.232Z,75.52
2022-08-18T22:42:02.337Z,75.68
2022-08-18T22:44:29.140Z,76.08
2022-08-18T22:46:56.026Z,76.34
2022-08-18T22:49:24.255Z,76.77
2022-08-18T22:51:53.797Z,77.12
2022-08-18T22:54:21.695Z,77.54
2022-08-18T22:56:54.014Z,77.56
2022-08-18T22:59:23.595Z,77.82
2022-08-18T23:01:51.207Z,78.38
2022-08-18T23:04:19.112Z,78.30
2022-08-18T23:06:52.548Z,77.53
2022-08-18T23:09:29.792Z,78.34
2022-08-18T23:12:01.880Z,78.65
2022-08-18T23:14:32.536Z,79.05
2022-08-18T23:17:00.543Z,79.14
2022-08-18T23:19:29.126Z,78.60
2022-08-18T23:21:56.103Z,79.08
2022-08-18T23:24:22.800Z,79.63
2022-08-18T23:26:50.000Z,80.00
2022-08-18T23:29:18.907Z,79.85
2022-08-18T23:31:46.485Z,79.58
2022-08-18T23:34:14.756Z,79.21
2022-08-18T23:36:45.353Z,78.63
2022-08-18T23:39:13.407Z,79.31
2022-08-18T23:41:39.881Z,79.96
2022-08-18T23:44:06.772Z,80.05
2022-08-18T23:46:33.912Z,80.17
2022-08-18T23:49:03.796Z,80.12
2022-08-18T23:51:51.062Z,79.85
2022-08-18T23:54:21.857Z,79.83
2022-08-18T23:56:49.111Z,80.12
